sensor_id;sensor_type;location;lat;lon;timestamp;pressure;altitude;pressure_sealevel;temperature;humidity
74675;BME280;63200;48.810;12.352;2022-12-29T00:01:45;97370.22;;;-0.07;79.63
74675;BME280;63200;48.810;12.352;2022-12-29T00:04:13;97378.00;;;-0.06;79.43
74675;BME280;63200;48.810;12.352;2022-12-29T00:06:39;97359.88;;;-0.22;79.78
74675;BME280;63200;48.810;12.352;2022-12-29T00:09:04;97368.25;;;0.07;79.69
74675;BME280;63200;48.810;12.352;2022-12-29T00:11:29;97369.84;;;0.08;79.17
74675;BME280;63200;48.810;12.352;2022-12-29T00:13:55;97365.28;;;0.15;78.74
74675;BME280;63200;48.810;12.352;2022-12-29T00:16:43;97367.13;;;0.14;78.96
74675;BME280;63200;48.810;12.352;2022-12-29T00:19:09;97312.38;;;-0.39;79.29
74675;BME280;63200;48.810;12.352;2022-12-29T00:21:55;97358.50;;;-0.06;79.72
74675;BME280;63200;48.810;12.352;2022-12-29T00:24:39;97355.31;;;0.04;79.44
74675;BME280;63200;48.810;12.352;2022-12-29T00:27:23;97355.78;;;0.01;79.31
74675;BME280;63200;48.810;12.352;2022-12-29T00:30:12;97350.59;;;0.06;79.54
74675;BME280;63200;48.810;12.352;2022-12-29T00:32:56;97344.66;;;0.22;78.73
74675;BME280;63200;48.810;12.352;2022-12-29T00:35:45;97343.66;;;0.42;77.78
74675;BME280;63200;48.810;12.352;2022-12-29T00:38:12;97338.13;;;0.18;78.49
74675;BME280;63200;48.810;12.352;2022-12-29T00:40:57;97344.16;;;0.13;78.94
74675;BME280;63200;48.810;12.352;2022-12-29T00:43:41;97313.25;;;0.43;77.55
74675;BME280;63200;48.810;12.352;2022-12-29T00:46:25;97341.34;;;0.45;77.67
74675;BME280;63200;48.810;12.352;2022-12-29T00:48:50;97338.47;;;0.47;77.80
74675;BME280;63200;48.810;12.352;2022-12-29T00:51:34;97340.81;;;0.74;77.21
74675;BME280;63200;48.810;12.352;2022-12-29T00:53:59;97327.69;;;0.54;77.16
74675;BME280;63200;48.810;12.352;2022-12-29T00:56:25;97314.72;;;0.39;77.42
74675;BME280;63200;48.810;12.352;2022-12-29T00:58:50;97348.91;;;0.48;77.71
74675;BME280;63200;48.810;12.352;2022-12-29T01:01:15;97344.25;;;0.44;78.33
74675;BME280;63200;48.810;12.352;2022-12-29T01:03:40;97347.94;;;0.61;77.70
74675;BME280;63200;48.810;12.352;2022-12-29T01:06:09;97343.25;;;0.38;77.44
74675;BME280;63200;48.810;12.352;2022-12-29T01:08:35;97348.41;;;0.58;77.41
74675;BME280;63200;48.810;12.352;2022-12-29T01:11:03;97349.28;;;0.52;77.45
74675;BME280;63200;48.810;12.352;2022-12-29T01:13:29;97348.19;;;0.41;78.00
74675;BME280;63200;48.810;12.352;2022-12-29T01:15:54;97352.91;;;0.58;77.69
74675;BME280;63200;48.810;12.352;2022-12-29T01:18:21;97359.66;;;0.42;77.79
74675;BME280;63200;48.810;12.352;2022-12-29T01:20:47;97311.44;;;0.55;76.60
74675;BME280;63200;48.810;12.352;2022-12-29T01:23:12;97357.88;;;0.54;76.73
74675;BME280;63200;48.810;12.352;2022-12-29T01:25:38;97347.97;;;0.43;77.84
74675;BME280;63200;48.810;12.352;2022-12-29T01:28:03;97330.06;;;0.43;76.93
74675;BME280;63200;48.810;12.352;2022-12-29T01:30:29;97355.66;;;0.70;76.68
74675;BME280;63200;48.810;12.352;2022-12-29T01:32:54;97362.19;;;0.74;76.19
74675;BME280;63200;48.810;12.352;2022-12-29T01:35:20;97359.44;;;0.62;76.40
74675;BME280;63200;48.810;12.352;2022-12-29T01:37:45;97355.28;;;0.66;76.44
74675;BME280;63200;48.810;12.352;2022-12-29T01:40:11;97345.06;;;0.63;76.46
74675;BME280;63200;48.810;12.352;2022-12-29T01:42:36;97348.81;;;0.74;76.31
74675;BME280;63200;48.810;12.352;2022-12-29T01:45:08;97338.75;;;0.57;76.58
74675;BME280;63200;48.810;12.352;2022-12-29T01:47:46;97338.06;;;0.62;76.41
74675;BME280;63200;48.810;12.352;2022-12-29T01:50:23;97333.91;;;0.66;75.75
74675;BME280;63200;48.810;12.352;2022-12-29T01:52:57;97328.72;;;0.53;76.09
74675;BME280;63200;48.810;12.352;2022-12-29T01:55:27;97321.31;;;0.55;76.62
74675;BME280;63200;48.810;12.352;2022-12-29T01:57:56;97326.81;;;0.41;76.42
74675;BME280;63200;48.810;12.352;2022-12-29T02:00:25;97323.84;;;0.31;77.09
74675;BME280;63200;48.810;12.352;2022-12-29T02:02:52;97324.22;;;0.35;76.68
74675;BME280;63200;48.810;12.352;2022-12-29T02:05:32;97309.31;;;0.27;76.69
74675;BME280;63200;48.810;12.352;2022-12-29T02:07:59;97315.22;;;0.29;76.92
74675;BME280;63200;48.810;12.352;2022-12-29T02:10:26;97326.28;;;0.32;77.00
74675;BME280;63200;48.810;12.352;2022-12-29T02:12:53;97310.41;;;0.19;76.67
74675;BME280;63200;48.810;12.352;2022-12-29T02:15:21;97321.56;;;0.35;76.83
74675;BME280;63200;48.810;12.352;2022-12-29T02:18:22;97314.56;;;0.33;76.49
74675;BME280;63200;48.810;12.352;2022-12-29T02:21:19;97312.72;;;0.34;75.99
74675;BME280;63200;48.810;12.352;2022-12-29T02:26:48;97311.06;;;0.14;76.64
74675;BME280;63200;48.810;12.352;2022-12-29T02:35:09;97299.63;;;-0.11;77.37
74675;BME280;63200;48.810;12.352;2022-12-29T02:40:24;97290.59;;;-0.10;78.46
74675;BME280;63200;48.810;12.352;2022-12-29T02:45:46;97283.25;;;0.04;77.81
74675;BME280;63200;48.810;12.352;2022-12-29T02:48:32;97250.56;;;-0.29;77.59
74675;BME280;63200;48.810;12.352;2022-12-29T02:51:04;97282.59;;;-0.10;78.14
74675;BME280;63200;48.810;12.352;2022-12-29T02:53:34;97258.84;;;-0.19;78.10
74675;BME280;63200;48.810;12.352;2022-12-29T02:56:18;97281.13;;;-0.06;77.85
74675;BME280;63200;48.810;12.352;2022-12-29T02:58:44;97260.63;;;-0.12;77.67
74675;BME280;63200;48.810;12.352;2022-12-29T03:07:09;97280.94;;;-0.11;77.63
74675;BME280;63200;48.810;12.352;2022-12-29T03:09:59;97292.56;;;-0.24;78.05
74675;BME280;63200;48.810;12.352;2022-12-29T03:12:35;97292.88;;;-0.14;78.19
74675;BME280;63200;48.810;12.352;2022-12-29T03:15:50;97258.47;;;-0.66;78.59
74675;BME280;63200;48.810;12.352;2022-12-29T03:18:36;97290.03;;;-0.38;79.02
74675;BME280;63200;48.810;12.352;2022-12-29T03:21:09;97296.03;;;-0.42;79.18
74675;BME280;63200;48.810;12.352;2022-12-29T03:23:37;97287.34;;;-0.38;79.03
74675;BME280;63200;48.810;12.352;2022-12-29T03:26:07;97305.41;;;-0.40;79.04
74675;BME280;63200;48.810;12.352;2022-12-29T03:28:47;97290.41;;;-0.34;78.87
74675;BME280;63200;48.810;12.352;2022-12-29T03:31:16;97296.66;;;-0.22;77.92
74675;BME280;63200;48.810;12.352;2022-12-29T03:33:43;97296.34;;;-0.13;78.36
74675;BME280;63200;48.810;12.352;2022-12-29T03:36:16;97279.94;;;0.08;77.63
74675;BME280;63200;48.810;12.352;2022-12-29T03:38:46;97269.84;;;0.29;76.53
74675;BME280;63200;48.810;12.352;2022-12-29T03:41:20;97259.09;;;-0.02;77.55
74675;BME280;63200;48.810;12.352;2022-12-29T03:43:47;97264.50;;;0.29;76.63
74675;BME280;63200;48.810;12.352;2022-12-29T03:46:12;97238.09;;;0.21;76.20
74675;BME280;63200;48.810;12.352;2022-12-29T03:48:37;97252.78;;;0.30;76.62
74675;BME280;63200;48.810;12.352;2022-12-29T03:51:03;97248.47;;;0.29;76.75
74675;BME280;63200;48.810;12.352;2022-12-29T03:53:28;97250.34;;;0.10;77.94
74675;BME280;63200;48.810;12.352;2022-12-29T03:55:53;97202.88;;;-0.25;78.14
74675;BME280;63200;48.810;12.352;2022-12-29T03:58:19;97241.09;;;0.12;78.50
74675;BME280;63200;48.810;12.352;2022-12-29T04:00:44;97240.13;;;0.25;77.77
74675;BME280;63200;48.810;12.352;2022-12-29T04:03:09;97238.88;;;0.09;78.17
74675;BME280;63200;48.810;12.352;2022-12-29T04:05:34;97215.06;;;-0.11;78.88
74675;BME280;63200;48.810;12.352;2022-12-29T04:08:00;97240.13;;;0.07;78.80
74675;BME280;63200;48.810;12.352;2022-12-29T04:10:25;97246.88;;;0.09;78.77
74675;BME280;63200;48.810;12.352;2022-12-29T04:12:50;97237.97;;;-0.03;78.67
74675;BME280;63200;48.810;12.352;2022-12-29T04:15:16;97260.81;;;0.11;79.06
74675;BME280;63200;48.810;12.352;2022-12-29T04:17:41;97250.50;;;0.15;79.19
74675;BME280;63200;48.810;12.352;2022-12-29T04:20:07;97260.94;;;0.16;78.94
74675;BME280;63200;48.810;12.352;2022-12-29T04:22:59;97243.06;;;0.17;79.05
74675;BME280;63200;48.810;12.352;2022-12-29T04:25:25;97244.66;;;0.55;77.53
74675;BME280;63200;48.810;12.352;2022-12-29T04:27:50;97243.25;;;0.53;76.89
74675;BME280;63200;48.810;12.352;2022-12-29T04:30:15;97242.91;;;0.79;75.61
74675;BME280;63200;48.810;12.352;2022-12-29T04:32:41;97245.75;;;0.66;76.24
74675;BME280;63200;48.810;12.352;2022-12-29T04:35:06;97248.22;;;0.68;76.33
74675;BME280;63200;48.810;12.352;2022-12-29T04:37:33;97236.91;;;0.65;76.16
74675;BME280;63200;48.810;12.352;2022-12-29T04:39:58;97244.25;;;0.70;76.58
74675;BME280;63200;48.810;12.352;2022-12-29T04:42:23;97250.28;;;0.65;76.81
74675;BME280;63200;48.810;12.352;2022-12-29T04:44:48;97248.50;;;0.90;75.44
74675;BME280;63200;48.810;12.352;2022-12-29T04:47:14;97246.00;;;0.76;75.75
74675;BME280;63200;48.810;12.352;2022-12-29T04:49:39;97238.84;;;0.46;76.79
74675;BME280;63200;48.810;12.352;2022-12-29T04:52:04;97250.53;;;0.45;76.87
74675;BME280;63200;48.810;12.352;2022-12-29T04:54:30;97240.91;;;0.44;77.64
74675;BME280;63200;48.810;12.352;2022-12-29T04:56:55;97216.28;;;0.24;77.20
74675;BME280;63200;48.810;12.352;2022-12-29T04:59:20;97242.03;;;0.37;77.30
74675;BME280;63200;48.810;12.352;2022-12-29T05:01:46;97235.50;;;0.32;77.70
74675;BME280;63200;48.810;12.352;2022-12-29T05:04:11;97248.09;;;0.44;77.36
74675;BME280;63200;48.810;12.352;2022-12-29T05:06:36;97209.53;;;0.21;77.50
74675;BME280;63200;48.810;12.352;2022-12-29T05:09:02;97248.59;;;0.53;77.49
74675;BME280;63200;48.810;12.352;2022-12-29T05:11:27;97256.47;;;0.47;77.72
74675;BME280;63200;48.810;12.352;2022-12-29T05:13:52;97246.97;;;0.52;77.54
74675;BME280;63200;48.810;12.352;2022-12-29T05:16:17;97243.94;;;0.48;77.50
74675;BME280;63200;48.810;12.352;2022-12-29T05:18:43;97243.09;;;0.47;77.86
74675;BME280;63200;48.810;12.352;2022-12-29T05:21:08;97253.94;;;0.53;77.49
74675;BME280;63200;48.810;12.352;2022-12-29T05:23:33;97251.03;;;0.54;77.24
74675;BME280;63200;48.810;12.352;2022-12-29T05:25:58;97258.47;;;0.52;77.57
74675;BME280;63200;48.810;12.352;2022-12-29T05:28:24;97252.75;;;0.48;77.50
74675;BME280;63200;48.810;12.352;2022-12-29T05:30:50;97253.78;;;0.47;77.61
74675;BME280;63200;48.810;12.352;2022-12-29T05:33:17;97253.59;;;0.49;77.54
74675;BME280;63200;48.810;12.352;2022-12-29T05:35:42;97251.16;;;0.59;77.46
74675;BME280;63200;48.810;12.352;2022-12-29T05:38:07;97253.63;;;0.61;77.29
74675;BME280;63200;48.810;12.352;2022-12-29T05:40:33;97253.28;;;0.57;77.47
74675;BME280;63200;48.810;12.352;2022-12-29T05:42:58;97246.53;;;0.55;77.50
74675;BME280;63200;48.810;12.352;2022-12-29T05:45:23;97212.22;;;0.40;77.55
74675;BME280;63200;48.810;12.352;2022-12-29T05:47:49;97265.03;;;0.68;76.89
74675;BME280;63200;48.810;12.352;2022-12-29T05:50:14;97241.09;;;0.61;77.36
74675;BME280;63200;48.810;12.352;2022-12-29T05:52:39;97261.81;;;0.78;77.08
74675;BME280;63200;48.810;12.352;2022-12-29T05:55:05;97256.66;;;0.95;75.93
74675;BME280;63200;48.810;12.352;2022-12-29T05:57:31;97252.63;;;0.74;77.02
74675;BME280;63200;48.810;12.352;2022-12-29T05:59:56;97257.59;;;0.70;76.88
74675;BME280;63200;48.810;12.352;2022-12-29T06:02:21;97249.47;;;0.65;77.24
74675;BME280;63200;48.810;12.352;2022-12-29T06:04:47;97253.13;;;0.82;76.76
74675;BME280;63200;48.810;12.352;2022-12-29T06:07:12;97242.81;;;0.86;77.04
74675;BME280;63200;48.810;12.352;2022-12-29T06:09:37;97245.59;;;0.79;77.16
74675;BME280;63200;48.810;12.352;2022-12-29T06:12:03;97238.00;;;0.76;78.21
74675;BME280;63200;48.810;12.352;2022-12-29T06:14:28;97240.38;;;0.96;76.55
74675;BME280;63200;48.810;12.352;2022-12-29T06:16:53;97247.66;;;1.20;75.56
74675;BME280;63200;48.810;12.352;2022-12-29T06:19:19;97236.03;;;1.14;75.93
74675;BME280;63200;48.810;12.352;2022-12-29T06:21:44;97230.69;;;1.14;75.71
74675;BME280;63200;48.810;12.352;2022-12-29T06:24:09;97227.22;;;1.37;74.75
74675;BME280;63200;48.810;12.352;2022-12-29T06:26:36;97226.63;;;1.35;73.95
74675;BME280;63200;48.810;12.352;2022-12-29T06:29:01;97232.06;;;1.05;75.58
74675;BME280;63200;48.810;12.352;2022-12-29T06:31:28;97226.03;;;1.33;74.55
74675;BME280;63200;48.810;12.352;2022-12-29T06:33:53;97233.38;;;1.38;73.90
74675;BME280;63200;48.810;12.352;2022-12-29T06:36:18;97235.91;;;1.21;75.18
74675;BME280;63200;48.810;12.352;2022-12-29T06:38:43;97243.56;;;1.05;75.07
74675;BME280;63200;48.810;12.352;2022-12-29T06:41:09;97237.38;;;0.93;76.06
74675;BME280;63200;48.810;12.352;2022-12-29T06:43:34;97243.94;;;1.21;75.50
74675;BME280;63200;48.810;12.352;2022-12-29T06:46:03;97246.13;;;1.12;75.14
74675;BME280;63200;48.810;12.352;2022-12-29T06:48:29;97258.09;;;1.09;75.13
74675;BME280;63200;48.810;12.352;2022-12-29T06:50:54;97251.66;;;0.98;76.21
74675;BME280;63200;48.810;12.352;2022-12-29T06:53:19;97255.41;;;1.09;75.38
74675;BME280;63200;48.810;12.352;2022-12-29T06:55:44;97255.81;;;1.25;75.27
74675;BME280;63200;48.810;12.352;2022-12-29T06:58:10;97257.19;;;1.15;75.34
74675;BME280;63200;48.810;12.352;2022-12-29T07:00:35;97258.16;;;1.45;73.92
74675;BME280;63200;48.810;12.352;2022-12-29T07:03:00;97252.22;;;1.43;73.74
74675;BME280;63200;48.810;12.352;2022-12-29T07:05:26;97257.91;;;1.35;74.05
74675;BME280;63200;48.810;12.352;2022-12-29T07:07:56;97243.22;;;1.25;73.89
74675;BME280;63200;48.810;12.352;2022-12-29T07:10:22;97260.91;;;1.26;74.26
74675;BME280;63200;48.810;12.352;2022-12-29T07:12:47;97274.78;;;1.35;74.45
74675;BME280;63200;48.810;12.352;2022-12-29T07:15:13;97276.59;;;1.23;74.83
74675;BME280;63200;48.810;12.352;2022-12-29T07:17:38;97283.44;;;1.19;75.04
74675;BME280;63200;48.810;12.352;2022-12-29T07:20:04;97284.81;;;1.09;75.88
74675;BME280;63200;48.810;12.352;2022-12-29T07:22:29;97284.97;;;1.14;75.63
74675;BME280;63200;48.810;12.352;2022-12-29T07:24:54;97281.53;;;1.38;74.59
74675;BME280;63200;48.810;12.352;2022-12-29T07:27:20;97267.41;;;1.19;75.68
74675;BME280;63200;48.810;12.352;2022-12-29T07:29:45;97292.31;;;1.31;75.42
74675;BME280;63200;48.810;12.352;2022-12-29T07:32:10;97291.75;;;1.29;75.35
74675;BME280;63200;48.810;12.352;2022-12-29T07:34:36;97284.09;;;1.44;74.86
74675;BME280;63200;48.810;12.352;2022-12-29T07:37:01;97290.25;;;1.45;75.09
74675;BME280;63200;48.810;12.352;2022-12-29T07:39:26;97293.41;;;1.54;74.30
74675;BME280;63200;48.810;12.352;2022-12-29T07:41:52;97288.41;;;1.81;73.96
74675;BME280;63200;48.810;12.352;2022-12-29T07:44:17;97298.44;;;1.86;73.42
74675;BME280;63200;48.810;12.352;2022-12-29T07:46:42;97299.34;;;1.79;73.84
74675;BME280;63200;48.810;12.352;2022-12-29T07:49:08;97277.72;;;1.69;73.79
74675;BME280;63200;48.810;12.352;2022-12-29T07:51:33;97303.56;;;1.75;73.79
74675;BME280;63200;48.810;12.352;2022-12-29T07:53:58;97307.28;;;1.86;73.90
74675;BME280;63200;48.810;12.352;2022-12-29T07:56:26;97314.50;;;1.97;73.16
74675;BME280;63200;48.810;12.352;2022-12-29T07:58:51;97306.34;;;2.04;73.30
74675;BME280;63200;48.810;12.352;2022-12-29T08:01:16;97298.19;;;2.11;72.86
74675;BME280;63200;48.810;12.352;2022-12-29T08:03:42;97293.50;;;2.18;72.82
74675;BME280;63200;48.810;12.352;2022-12-29T08:06:09;97297.59;;;2.21;72.46
74675;BME280;63200;48.810;12.352;2022-12-29T08:08:35;97287.13;;;2.07;72.78
74675;BME280;63200;48.810;12.352;2022-12-29T08:11:00;97294.34;;;2.30;72.20
74675;BME280;63200;48.810;12.352;2022-12-29T08:13:26;97288.38;;;2.40;72.04
74675;BME280;63200;48.810;12.352;2022-12-29T08:15:51;97277.09;;;2.38;72.08
74675;BME280;63200;48.810;12.352;2022-12-29T08:18:16;97285.81;;;2.33;71.90
74675;BME280;63200;48.810;12.352;2022-12-29T08:20:42;97278.44;;;2.41;71.50
74675;BME280;63200;48.810;12.352;2022-12-29T08:23:07;97273.09;;;2.41;72.58
74675;BME280;63200;48.810;12.352;2022-12-29T08:25:32;97245.31;;;2.18;72.60
74675;BME280;63200;48.810;12.352;2022-12-29T08:27:58;97284.84;;;2.52;72.62
74675;BME280;63200;48.810;12.352;2022-12-29T08:30:23;97266.66;;;2.54;72.37
74675;BME280;63200;48.810;12.352;2022-12-29T08:32:48;97262.31;;;2.64;72.10
74675;BME280;63200;48.810;12.352;2022-12-29T08:35:14;97255.75;;;2.72;72.35
74675;BME280;63200;48.810;12.352;2022-12-29T08:37:39;97271.75;;;2.96;72.12
74675;BME280;63200;48.810;12.352;2022-12-29T08:40:05;97272.31;;;2.98;71.82
74675;BME280;63200;48.810;12.352;2022-12-29T08:42:31;97262.94;;;3.12;71.25
74675;BME280;63200;48.810;12.352;2022-12-29T08:44:58;97273.59;;;3.24;71.21
74675;BME280;63200;48.810;12.352;2022-12-29T08:47:23;97259.53;;;3.68;70.01
74675;BME280;63200;48.810;12.352;2022-12-29T08:49:48;97266.66;;;3.96;68.49
74675;BME280;63200;48.810;12.352;2022-12-29T08:52:14;97272.63;;;4.43;67.47
74675;BME280;63200;48.810;12.352;2022-12-29T08:54:39;97263.19;;;4.84;66.17
74675;BME280;63200;48.810;12.352;2022-12-29T08:57:04;97277.84;;;5.96;63.53
74675;BME280;63200;48.810;12.352;2022-12-29T08:59:30;97276.63;;;6.62;60.83
74675;BME280;63200;48.810;12.352;2022-12-29T09:01:55;97267.66;;;6.46;60.81
74675;BME280;63200;48.810;12.352;2022-12-29T09:04:20;97270.25;;;6.31;62.07
74675;BME280;63200;48.810;12.352;2022-12-29T09:06:46;97246.38;;;5.64;63.69
74675;BME280;63200;48.810;12.352;2022-12-29T09:09:11;97277.34;;;5.62;64.75
74675;BME280;63200;48.810;12.352;2022-12-29T09:11:37;97245.41;;;6.19;62.62
74675;BME280;63200;48.810;12.352;2022-12-29T09:14:03;97278.91;;;6.33;61.75
74675;BME280;63200;48.810;12.352;2022-12-29T09:16:28;97283.38;;;5.42;64.51
74675;BME280;63200;48.810;12.352;2022-12-29T09:18:54;97281.06;;;5.23;65.76
74675;BME280;63200;48.810;12.352;2022-12-29T09:21:19;97294.38;;;5.73;65.20
74675;BME280;63200;48.810;12.352;2022-12-29T09:23:45;97293.72;;;6.94;61.29
74675;BME280;63200;48.810;12.352;2022-12-29T09:26:10;97257.91;;;7.91;58.93
74675;BME280;63200;48.810;12.352;2022-12-29T09:28:35;97284.28;;;9.11;55.22
74675;BME280;63200;48.810;12.352;2022-12-29T09:31:02;97294.59;;;9.09;54.31
74675;BME280;63200;48.810;12.352;2022-12-29T09:33:27;97256.78;;;8.89;54.48
74675;BME280;63200;48.810;12.352;2022-12-29T09:35:55;97292.47;;;9.01;55.37
74675;BME280;63200;48.810;12.352;2022-12-29T09:38:21;97289.50;;;7.91;57.22
74675;BME280;63200;48.810;12.352;2022-12-29T09:41:59;97286.28;;;7.89;57.91
74675;BME280;63200;48.810;12.352;2022-12-29T09:44:23;97280.53;;;8.21;57.86
74675;BME280;63200;48.810;12.352;2022-12-29T09:46:53;97287.19;;;8.70;57.20
74675;BME280;63200;48.810;12.352;2022-12-29T09:49:25;97279.44;;;9.03;55.86
74675;BME280;63200;48.810;12.352;2022-12-29T09:51:57;97282.66;;;9.55;55.11
74675;BME280;63200;48.810;12.352;2022-12-29T09:57:16;97270.81;;;10.34;51.92
74675;BME280;63200;48.810;12.352;2022-12-29T09:59:45;97253.91;;;9.89;53.91
74675;BME280;63200;48.810;12.352;2022-12-29T10:02:23;97270.72;;;9.16;55.15
74675;BME280;63200;48.810;12.352;2022-12-29T10:04:51;97253.03;;;8.79;56.72
74675;BME280;63200;48.810;12.352;2022-12-29T10:15:40;97250.88;;;7.39;61.90
74675;BME280;63200;48.810;12.352;2022-12-29T10:24:07;97229.75;;;6.89;63.73
74675;BME280;63200;48.810;12.352;2022-12-29T10:26:43;97245.69;;;6.91;64.12
74675;BME280;63200;48.810;12.352;2022-12-29T10:29:35;97233.31;;;7.00;63.93
74675;BME280;63200;48.810;12.352;2022-12-29T10:32:06;97233.56;;;7.14;64.13
74675;BME280;63200;48.810;12.352;2022-12-29T10:34:45;97230.91;;;7.60;63.27
74675;BME280;63200;48.810;12.352;2022-12-29T10:37:28;97225.19;;;7.82;62.16
74675;BME280;63200;48.810;12.352;2022-12-29T10:39:55;97212.53;;;7.62;62.27
74675;BME280;63200;48.810;12.352;2022-12-29T10:42:41;97217.66;;;7.54;62.96
74675;BME280;63200;48.810;12.352;2022-12-29T10:45:13;97190.91;;;7.31;63.53
74675;BME280;63200;48.810;12.352;2022-12-29T10:50:24;97201.72;;;7.37;64.03
74675;BME280;63200;48.810;12.352;2022-12-29T10:52:51;97201.22;;;7.40;64.24
74675;BME280;63200;48.810;12.352;2022-12-29T10:55:22;97204.94;;;7.59;63.56
74675;BME280;63200;48.810;12.352;2022-12-29T10:57:49;97178.75;;;7.75;63.00
74675;BME280;63200;48.810;12.352;2022-12-29T11:00:19;97201.84;;;8.17;62.75
74675;BME280;63200;48.810;12.352;2022-12-29T11:03:10;97197.44;;;8.42;62.26
74675;BME280;63200;48.810;12.352;2022-12-29T11:06:00;97193.97;;;8.37;61.58
74675;BME280;63200;48.810;12.352;2022-12-29T11:08:36;97193.38;;;8.50;62.13
74675;BME280;63200;48.810;12.352;2022-12-29T11:11:05;97195.16;;;8.75;60.96
74675;BME280;63200;48.810;12.352;2022-12-29T11:13:33;97198.09;;;8.84;61.23
74675;BME280;63200;48.810;12.352;2022-12-29T11:15:58;97188.88;;;8.85;61.39
74675;BME280;63200;48.810;12.352;2022-12-29T11:18:32;97190.16;;;8.93;61.81
74675;BME280;63200;48.810;12.352;2022-12-29T11:21:04;97170.31;;;9.42;61.38
74675;BME280;63200;48.810;12.352;2022-12-29T11:26:25;97175.56;;;9.87;57.21
74675;BME280;63200;48.810;12.352;2022-12-29T11:31:43;97167.09;;;10.42;55.08
74675;BME280;63200;48.810;12.352;2022-12-29T11:34:08;97174.31;;;10.52;54.75
74675;BME280;63200;48.810;12.352;2022-12-29T11:36:41;97170.06;;;10.65;54.14
74675;BME280;63200;48.810;12.352;2022-12-29T11:39:24;97154.56;;;10.65;53.96
74675;BME280;63200;48.810;12.352;2022-12-29T11:41:52;97168.44;;;10.64;54.67
74675;BME280;63200;48.810;12.352;2022-12-29T11:44:18;97173.41;;;10.57;54.78
74675;BME280;63200;48.810;12.352;2022-12-29T11:46:46;97166.00;;;10.43;54.70
74675;BME280;63200;48.810;12.352;2022-12-29T11:49:20;97155.81;;;10.54;55.27
74675;BME280;63200;48.810;12.352;2022-12-29T11:51:47;97161.69;;;10.61;54.83
74675;BME280;63200;48.810;12.352;2022-12-29T11:54:21;97159.78;;;10.62;54.66
74675;BME280;63200;48.810;12.352;2022-12-29T11:56:50;97115.66;;;10.32;54.19
74675;BME280;63200;48.810;12.352;2022-12-29T12:02:11;97145.19;;;10.58;53.68
74675;BME280;63200;48.810;12.352;2022-12-29T12:04:44;97163.75;;;10.70;53.53
74675;BME280;63200;48.810;12.352;2022-12-29T12:07:17;97163.97;;;10.73;53.43
74675;BME280;63200;48.810;12.352;2022-12-29T12:09:48;97149.16;;;10.65;53.49
74675;BME280;63200;48.810;12.352;2022-12-29T12:12:31;97150.91;;;10.75;51.03
74675;BME280;63200;48.810;12.352;2022-12-29T12:15:02;97155.25;;;11.28;49.76
74675;BME280;63200;48.810;12.352;2022-12-29T12:17:40;97142.69;;;11.79;48.04
74675;BME280;63200;48.810;12.352;2022-12-29T12:22:46;97140.75;;;11.00;51.34
74675;BME280;63200;48.810;12.352;2022-12-29T12:25:21;97129.47;;;10.93;52.31
74675;BME280;63200;48.810;12.352;2022-12-29T12:28:00;97126.25;;;11.71;49.84
74675;BME280;63200;48.810;12.352;2022-12-29T12:30:30;97111.53;;;12.78;45.95
74675;BME280;63200;48.810;12.352;2022-12-29T12:38:46;97137.81;;;14.54;42.75
74675;BME280;63200;48.810;12.352;2022-12-29T13:00:27;97121.47;;;12.96;45.62
74675;BME280;63200;48.810;12.352;2022-12-29T13:06:15;97120.47;;;12.92;45.81
74675;BME280;63200;48.810;12.352;2022-12-29T13:17:03;97105.72;;;14.68;42.40
74675;BME280;63200;48.810;12.352;2022-12-29T13:19:38;97105.41;;;13.63;45.74
74675;BME280;63200;48.810;12.352;2022-12-29T13:22:41;97124.56;;;12.81;47.65
74675;BME280;63200;48.810;12.352;2022-12-29T13:25:17;97123.88;;;12.25;49.76
74675;BME280;63200;48.810;12.352;2022-12-29T13:28:09;97072.56;;;11.62;50.51
74675;BME280;63200;48.810;12.352;2022-12-29T13:30:47;97109.50;;;11.49;52.81
74675;BME280;63200;48.810;12.352;2022-12-29T13:36:11;97110.31;;;10.84;53.83
74675;BME280;63200;48.810;12.352;2022-12-29T13:38:43;97096.91;;;10.55;54.28
74675;BME280;63200;48.810;12.352;2022-12-29T13:41:13;97095.44;;;10.43;54.22
74675;BME280;63200;48.810;12.352;2022-12-29T13:43:42;97118.75;;;10.63;53.41
74675;BME280;63200;48.810;12.352;2022-12-29T13:46:19;97121.09;;;10.70;52.86
74675;BME280;63200;48.810;12.352;2022-12-29T13:48:51;97093.31;;;10.59;52.48
74675;BME280;63200;48.810;12.352;2022-12-29T13:51:19;97127.13;;;10.67;53.32
74675;BME280;63200;48.810;12.352;2022-12-29T13:56:17;97129.97;;;10.57;53.91
74675;BME280;63200;48.810;12.352;2022-12-29T14:01:53;97132.56;;;10.48;54.67
74675;BME280;63200;48.810;12.352;2022-12-29T14:04:31;97133.19;;;10.40;54.97
74675;BME280;63200;48.810;12.352;2022-12-29T14:07:15;97141.53;;;10.24;55.17
74675;BME280;63200;48.810;12.352;2022-12-29T14:09:47;97134.34;;;10.33;55.57
74675;BME280;63200;48.810;12.352;2022-12-29T14:12:36;97100.09;;;9.94;55.54
74675;BME280;63200;48.810;12.352;2022-12-29T14:17:30;97087.25;;;9.81;56.29
74675;BME280;63200;48.810;12.352;2022-12-29T14:19:55;97135.75;;;10.07;56.41
74675;BME280;63200;48.810;12.352;2022-12-29T14:22:25;97138.53;;;10.02;56.83
74675;BME280;63200;48.810;12.352;2022-12-29T14:24:51;97138.06;;;9.94;57.08
74675;BME280;63200;48.810;12.352;2022-12-29T14:29:44;97139.03;;;9.79;56.22
74675;BME280;63200;48.810;12.352;2022-12-29T14:35:36;97148.75;;;9.56;56.88
74675;BME280;63200;48.810;12.352;2022-12-29T14:38:25;97153.97;;;9.53;57.70
74675;BME280;63200;48.810;12.352;2022-12-29T14:40:52;97099.75;;;9.23;57.99
74675;BME280;63200;48.810;12.352;2022-12-29T14:43:21;97144.34;;;9.36;58.51
74675;BME280;63200;48.810;12.352;2022-12-29T14:46:07;97140.84;;;9.36;57.69
74675;BME280;63200;48.810;12.352;2022-12-29T14:48:36;97148.97;;;9.36;57.68
74675;BME280;63200;48.810;12.352;2022-12-29T14:51:20;97138.91;;;9.36;57.35
74675;BME280;63200;48.810;12.352;2022-12-29T14:53:50;97142.25;;;9.28;58.41
74675;BME280;63200;48.810;12.352;2022-12-29T14:56:17;97138.53;;;9.19;58.40